Time;durP1;ratioP1;P1;durP2;ratioP2;P2;SDS_P1;SDS_P2;PMS_P1;PMS_P2;Temp;Humidity;BMP_temperature;BMP_pressure;BME280_temperature;BME280_humidity;BME280_pressure;Samples;Min_cycle;Max_cycle;Signal;HPM_P1;HPM_P2
2022/09/11 00:00:27;;;;;;;25.35;21.90;;;14.60;99.90;;;;;;5008986;28;20057;-86
2022/09/11 00:02:53;;;;;;;26.77;23.67;;;14.50;99.90;;;;;;5009800;28;20049;-87
2022/09/11 00:05:19;;;;;;;29.08;22.98;;;14.30;99.90;;;;;;5008472;28;20070;-82
2022/09/11 00:07:46;;;;;;;35.13;25.98;;;14.50;99.90;;;;;;5008499;28;20073;-85
2022/09/11 00:10:11;;;;;;;26.85;23.10;;;14.50;99.90;;;;;;5008251;28;20401;-86
2022/09/11 00:12:37;;;;;;;31.45;25.95;;;14.50;99.90;;;;;;5008358;28;20038;-87
2022/09/11 00:15:03;;;;;;;31.77;26.70;;;14.50;99.90;;;;;;5005883;28;20402;-86
2022/09/11 00:17:29;;;;;;;31.27;25.60;;;14.30;99.90;;;;;;5006813;28;20038;-86
2022/09/11 00:19:54;;;;;;;31.08;25.55;;;14.40;99.90;;;;;;5006842;28;20038;-84
2022/09/11 00:22:20;;;;;;;31.30;26.65;;;14.40;99.90;;;;;;5004957;28;20083;-85
2022/09/11 00:24:46;;;;;;;30.98;25.05;;;14.20;99.90;;;;;;5006352;28;20451;-86
2022/09/11 00:27:12;;;;;;;31.02;23.90;;;14.40;99.90;;;;;;5006641;28;20041;-86
2022/09/11 00:29:37;;;;;;;29.35;24.08;;;14.40;99.90;;;;;;5014750;28;20041;-85
2022/09/11 00:32:03;;;;;;;30.17;22.85;;;14.30;99.90;;;;;;5009420;28;20449;-87
2022/09/11 00:34:29;;;;;;;25.95;22.55;;;14.40;99.90;;;;;;4994317;28;20037;-86
2022/09/11 00:36:54;;;;;;;27.35;24.25;;;14.40;99.90;;;;;;5019267;28;20038;-86
2022/09/11 00:39:20;;;;;;;27.35;24.45;;;14.50;99.90;;;;;;5019130;28;20110;-86
2022/09/11 00:41:46;;;;;;;26.30;21.85;;;14.30;99.90;;;;;;5008811;28;20033;-86
2022/09/11 00:44:17;;;;;;;25.65;21.80;;;14.50;99.90;;;;;;5004795;28;20105;-84
2022/09/11 00:46:53;;;;;;;22.52;19.70;;;14.40;99.90;;;;;;5005874;28;20595;-85
2022/09/11 00:49:47;;;;;;;22.65;20.35;;;14.40;99.90;;;;;;5020184;28;20977;-87
2022/09/11 00:52:35;;;;;;;22.63;19.52;;;14.40;99.90;;;;;;5002706;28;20045;-85
2022/09/11 00:55:09;;;;;;;25.63;19.90;;;14.50;99.90;;;;;;5007848;28;20050;-86
2022/09/11 00:57:44;;;;;;;32.03;22.08;;;14.40;99.90;;;;;;5007788;28;20046;-85
2022/09/11 01:00:12;;;;;;;25.20;21.13;;;14.30;99.90;;;;;;5006894;28;20124;-83
2022/09/11 01:02:41;;;;;;;22.90;19.95;;;14.30;99.90;;;;;;5007438;28;20046;-86
2022/09/11 01:05:08;;;;;;;23.37;20.90;;;14.30;99.90;;;;;;5007336;28;20041;-83
2022/09/11 01:07:35;;;;;;;24.27;21.15;;;14.50;99.90;;;;;;5009406;28;20034;-86
2022/09/11 01:10:02;;;;;;;25.38;22.77;;;14.30;99.90;;;;;;5006282;28;20046;-86
2022/09/11 01:12:51;;;;;;;24.52;20.75;;;14.40;99.90;;;;;;5004881;28;20041;-86
2022/09/11 01:15:32;;;;;;;27.05;24.17;;;14.50;99.90;;;;;;5011960;28;20042;-87
2022/09/11 01:18:23;;;;;;;26.50;21.83;;;14.40;99.90;;;;;;5012378;28;20499;-84
2022/09/11 01:21:09;;;;;;;26.83;22.38;;;14.50;99.90;;;;;;5010016;28;20060;-85
2022/09/11 01:23:56;;;;;;;23.75;21.08;;;14.30;99.90;;;;;;5027905;28;20544;-86
2022/09/11 01:26:54;;;;;;;19.88;17.73;;;14.30;99.90;;;;;;5014671;28;20061;-87
2022/09/11 01:29:41;;;;;;;18.58;16.08;;;14.20;99.90;;;;;;5008953;28;20042;-86
2022/09/11 01:32:22;;;;;;;16.50;13.23;;;14.10;99.90;;;;;;5020819;28;20041;-86
2022/09/11 01:35:27;;;;;;;15.55;13.50;;;14.10;99.90;;;;;;5030981;28;20038;-86
2022/09/11 01:38:00;;;;;;;15.00;12.60;;;14.00;99.90;;;;;;5017085;28;20033;-87
2022/09/11 01:40:47;;;;;;;14.48;12.98;;;14.00;99.90;;;;;;5033581;28;20038;-82
2022/09/11 01:43:20;;;;;;;13.93;12.45;;;13.90;99.90;;;;;;5032603;28;20045;-87
2022/09/11 01:45:47;;;;;;;14.45;11.85;;;13.80;99.90;;;;;;5032239;28;20022;-88
2022/09/11 01:48:19;;;;;;;15.25;13.50;;;13.90;99.90;;;;;;5031820;28;20042;-87
2022/09/11 01:50:47;;;;;;;15.98;14.38;;;14.00;99.90;;;;;;5035116;28;20033;-82
2022/09/11 01:53:16;;;;;;;19.23;14.65;;;14.00;99.90;;;;;;5033383;28;20080;-83
2022/09/11 01:55:47;;;;;;;15.33;13.73;;;13.80;99.90;;;;;;5033217;28;20072;-86
2022/09/11 01:58:20;;;;;;;15.50;13.85;;;13.80;99.90;;;;;;5030844;28;20045;-87
2022/09/11 02:00:49;;;;;;;14.23;12.80;;;13.90;99.90;;;;;;5028124;28;20043;-86
2022/09/11 02:03:31;;;;;;;15.50;12.95;;;13.70;99.90;;;;;;5028754;28;20029;-85
2022/09/11 02:06:02;;;;;;;15.55;13.82;;;13.70;99.90;;;;;;5030072;28;20275;-82
2022/09/11 02:08:49;;;;;;;16.10;14.35;;;13.80;99.90;;;;;;5032855;28;20077;-87
2022/09/11 02:11:17;;;;;;;14.77;12.45;;;13.70;99.90;;;;;;5032551;28;20049;-87
2022/09/11 02:13:59;;;;;;;15.45;13.85;;;13.60;99.90;;;;;;5033227;28;20041;-86
2022/09/11 02:16:45;;;;;;;15.93;14.20;;;13.70;99.90;;;;;;5031934;28;20038;-86
2022/09/11 02:19:14;;;;;;;15.05;13.55;;;13.60;99.90;;;;;;5033463;28;20154;-86
2022/09/11 02:21:40;;;;;;;17.60;12.73;;;13.50;99.90;;;;;;5030958;28;20037;-87
2022/09/11 02:24:08;;;;;;;13.27;11.82;;;13.60;99.90;;;;;;5021592;28;20080;-86
2022/09/11 02:26:38;;;;;;;13.38;12.02;;;13.50;99.90;;;;;;5014200;28;20041;-86
2022/09/11 02:29:04;;;;;;;12.82;11.50;;;13.50;99.90;;;;;;5014712;28;20045;-84
2022/09/11 02:31:32;;;;;;;12.45;11.15;;;13.50;99.90;;;;;;5016926;28;20061;-85
2022/09/11 02:33:57;;;;;;;12.57;10.20;;;13.50;99.90;;;;;;5016390;28;20050;-86
2022/09/11 02:36:34;;;;;;;11.77;9.57;;;13.50;99.90;;;;;;5008358;28;20057;-86
2022/09/11 02:39:26;;;;;;;10.52;9.40;;;13.50;99.90;;;;;;4997563;28;20050;-86
2022/09/11 02:42:03;;;;;;;11.77;10.43;;;13.40;99.90;;;;;;4998751;28;20053;-86
2022/09/11 02:44:44;;;;;;;13.80;11.05;;;13.30;99.90;;;;;;5022975;28;20620;-86
2022/09/11 02:47:21;;;;;;;;;;;13.50;99.90;;;;;;5006716;28;20030;-76
2022/09/11 02:49:53;;;;;;;11.07;10.00;;;13.50;99.90;;;;;;5005505;28;19922;-86
2022/09/11 02:52:41;;;;;;;11.85;9.43;;;13.40;99.90;;;;;;5005497;28;20065;-85
2022/09/11 02:55:43;;;;;;;9.00;8.18;;;13.30;99.90;;;;;;4989368;28;20174;-85
2022/09/11 02:58:32;;;;;;;10.30;8.15;;;13.30;99.90;;;;;;5005368;28;20392;-85
2022/09/11 03:01:00;;;;;;;9.25;8.27;;;13.20;99.90;;;;;;5021129;28;20041;-84
2022/09/11 03:03:26;;;;;;;7.53;6.82;;;13.30;99.90;;;;;;5006175;28;20053;-85
2022/09/11 03:05:52;;;;;;;7.63;6.82;;;13.20;99.90;;;;;;4987627;28;20543;-84
2022/09/11 03:08:18;;;;;;;8.43;7.63;;;13.20;99.90;;;;;;5006493;28;20049;-86
2022/09/11 03:10:45;;;;;;;8.48;7.68;;;13.10;99.90;;;;;;4986557;28;20046;-85
2022/09/11 03:13:13;;;;;;;10.60;9.07;;;13.20;99.90;;;;;;4988172;28;20064;-84
2022/09/11 03:15:42;;;;;;;9.60;8.60;;;13.20;99.90;;;;;;5007309;28;20038;-85
2022/09/11 03:18:08;;;;;;;11.43;9.60;;;13.10;99.90;;;;;;5005007;28;20053;-86
2022/09/11 03:20:33;;;;;;;10.63;7.90;;;13.30;99.90;;;;;;5006651;28;20046;-86
2022/09/11 03:22:59;;;;;;;10.93;7.97;;;13.20;99.90;;;;;;5019647;28;20655;-87
2022/09/11 03:25:27;;;;;;;10.43;8.27;;;13.20;99.90;;;;;;5006172;28;20041;-85
2022/09/11 03:27:53;;;;;;;9.77;8.85;;;13.10;99.90;;;;;;5011180;28;20049;-85
2022/09/11 03:30:20;;;;;;;11.15;9.88;;;13.10;99.90;;;;;;5017158;28;20037;-86
2022/09/11 03:32:45;;;;;;;10.65;9.65;;;13.30;99.90;;;;;;5000655;28;20071;-86
2022/09/11 03:35:11;;;;;;;8.35;7.55;;;13.30;99.90;;;;;;5019854;28;20085;-87
2022/09/11 03:37:36;;;;;;;8.10;7.13;;;13.10;99.90;;;;;;5023523;28;20038;-86
2022/09/11 03:40:03;;;;;;;9.30;8.40;;;13.10;99.90;;;;;;5019056;28;20533;-87
2022/09/11 03:42:29;;;;;;;8.70;7.90;;;13.10;99.90;;;;;;5010147;28;20048;-85
2022/09/11 03:44:54;;;;;;;8.43;7.63;;;13.00;99.90;;;;;;5020998;28;20034;-86
2022/09/11 03:47:21;;;;;;;10.35;7.95;;;13.00;99.90;;;;;;4991303;28;20030;-86
2022/09/11 03:49:47;;;;;;;8.73;7.85;;;13.00;99.90;;;;;;5019864;28;20045;-85
2022/09/11 03:52:13;;;;;;;10.57;8.45;;;13.10;99.90;;;;;;5026397;28;20030;-84
2022/09/11 03:54:38;;;;;;;9.48;8.60;;;12.90;99.90;;;;;;5025687;28;20060;-83
2022/09/11 03:57:05;;;;;;;8.32;7.32;;;12.90;99.90;;;;;;5021019;28;20046;-87
2022/09/11 03:59:31;;;;;;;8.80;7.25;;;12.90;99.90;;;;;;4990057;28;20124;-86
2022/09/11 04:01:57;;;;;;;9.45;8.52;;;12.90;99.90;;;;;;5024297;28;20136;-86
2022/09/11 04:04:23;;;;;;;8.32;7.03;;;12.80;99.90;;;;;;5010309;28;20046;-87
2022/09/11 04:06:48;;;;;;;7.75;6.95;;;12.80;99.90;;;;;;5007090;28;20416;-87
2022/09/11 04:09:14;;;;;;;10.77;8.00;;;12.80;99.90;;;;;;5006591;28;20091;-86
2022/09/11 04:11:40;;;;;;;8.98;7.60;;;12.80;99.90;;;;;;5021222;28;20038;-86
2022/09/11 04:14:06;;;;;;;8.55;7.75;;;12.90;99.90;;;;;;5007690;28;20101;-86
2022/09/11 04:16:32;;;;;;;10.23;9.15;;;12.80;99.90;;;;;;5007518;28;20396;-87
2022/09/11 04:18:59;;;;;;;9.10;8.20;;;12.80;99.90;;;;;;5005496;28;20052;-86
2022/09/11 04:21:26;;;;;;;9.88;8.77;;;12.90;99.90;;;;;;5006502;28;20515;-86
2022/09/11 04:23:55;;;;;;;11.57;8.65;;;12.80;99.90;;;;;;5021812;28;20081;-86
2022/09/11 04:26:23;;;;;;;8.88;7.78;;;12.90;99.90;;;;;;5005369;28;20393;-85
2022/09/11 04:28:49;;;;;;;8.95;8.05;;;12.90;99.90;;;;;;5021147;28;20064;-86
2022/09/11 04:31:17;;;;;;;9.48;8.55;;;12.90;99.90;;;;;;5005199;28;20042;-87
2022/09/11 04:33:44;;;;;;;10.55;9.45;;;12.90;99.90;;;;;;5002772;28;20081;-87
2022/09/11 04:36:12;;;;;;;12.07;10.57;;;12.90;99.90;;;;;;5004903;28;20038;-77
2022/09/11 04:38:40;;;;;;;14.57;12.02;;;13.00;99.90;;;;;;5003989;28;20129;-85
2022/09/11 04:41:07;;;;;;;10.52;9.43;;;12.80;99.90;;;;;;5004034;28;20065;-86
2022/09/11 04:43:35;;;;;;;12.10;9.80;;;12.90;99.90;;;;;;5005639;28;20485;-87
2022/09/11 04:46:06;;;;;;;12.40;11.07;;;12.60;99.90;;;;;;5005557;28;20049;-87
2022/09/11 04:48:32;;;;;;;12.07;10.88;;;12.60;99.90;;;;;;5000059;28;20711;-87
2022/09/11 04:51:06;;;;;;;13.23;10.93;;;12.60;99.90;;;;;;5004946;28;20449;-86
2022/09/11 04:53:32;;;;;;;11.73;10.52;;;12.60;99.90;;;;;;5002661;28;20124;-86
2022/09/11 04:56:05;;;;;;;9.90;9.00;;;12.70;99.90;;;;;;5005111;28;20045;-87
2022/09/11 04:58:31;;;;;;;8.30;7.55;;;12.70;99.90;;;;;;5004188;28;20522;-85
2022/09/11 05:00:56;;;;;;;6.70;6.10;;;12.60;99.90;;;;;;5004842;28;20232;-86
2022/09/11 05:03:23;;;;;;;8.63;6.65;;;12.60;99.90;;;;;;5003616;28;20053;-86
2022/09/11 05:05:49;;;;;;;8.82;7.60;;;12.70;99.90;;;;;;5004616;28;20096;-86
2022/09/11 05:08:17;;;;;;;8.13;7.30;;;12.50;99.90;;;;;;5004835;28;20043;-86
2022/09/11 05:10:43;;;;;;;9.35;7.03;;;12.50;99.90;;;;;;5013735;28;20069;-84
2022/09/11 05:13:10;;;;;;;8.05;7.25;;;12.60;99.90;;;;;;5005559;28;20049;-75
2022/09/11 05:15:36;;;;;;;8.70;7.15;;;12.50;99.90;;;;;;5017323;28;20046;-86
2022/09/11 05:18:03;;;;;;;7.43;6.72;;;12.40;99.90;;;;;;5012697;28;20090;-86
2022/09/11 05:20:29;;;;;;;9.60;8.77;;;12.60;99.90;;;;;;5005483;28;20489;-85
2022/09/11 05:22:56;;;;;;;8.52;7.75;;;12.60;99.90;;;;;;5001438;28;20042;-86
2022/09/11 05:25:22;;;;;;;6.70;6.10;;;12.50;99.90;;;;;;5003909;28;20096;-85
2022/09/11 05:27:47;;;;;;;6.63;6.03;;;12.50;99.90;;;;;;5005639;28;20535;-88
2022/09/11 05:30:13;;;;;;;6.10;5.60;;;12.60;99.90;;;;;;5020346;28;20041;-87
2022/09/11 05:32:38;;;;;;;6.82;6.18;;;12.50;99.90;;;;;;5005174;28;20049;-87
2022/09/11 05:35:06;;;;;;;5.68;5.00;;;12.50;99.90;;;;;;5016466;28;20389;-87
2022/09/11 05:37:31;;;;;;;5.18;4.75;;;12.60;99.90;;;;;;5018391;28;20053;-87
2022/09/11 05:39:58;;;;;;;4.97;4.47;;;12.60;99.90;;;;;;5003811;28;20037;-85
2022/09/11 05:42:27;;;;;;;4.88;4.47;;;12.70;99.90;;;;;;5001038;28;20065;-87
2022/09/11 05:44:53;;;;;;;5.03;4.60;;;12.70;99.90;;;;;;5018870;28;20081;-87
2022/09/11 05:47:19;;;;;;;7.97;3.97;;;12.60;99.90;;;;;;5003658;28;20830;-85
2022/09/11 05:49:45;;;;;;;5.18;4.78;;;12.70;99.90;;;;;;5002879;28;20038;-86
2022/09/11 05:52:10;;;;;;;4.10;3.75;;;12.70;99.90;;;;;;4986097;28;20192;-85
2022/09/11 05:54:36;;;;;;;4.50;4.03;;;12.70;99.90;;;;;;5003996;28;20053;-84
2022/09/11 05:57:02;;;;;;;4.50;4.10;;;12.80;99.90;;;;;;5004809;28;20056;-82
2022/09/11 05:59:27;;;;;;;4.60;4.20;;;12.70;99.90;;;;;;5003355;28;20695;-85
2022/09/11 06:01:53;;;;;;;7.10;6.47;;;13.00;99.90;;;;;;5003338;28;20104;-85
2022/09/11 06:04:19;;;;;;;7.43;5.70;;;12.90;99.90;;;;;;5020350;28;20053;-80
2022/09/11 06:06:47;;;;;;;6.97;5.97;;;13.20;99.90;;;;;;5001016;28;20049;-86
2022/09/11 06:09:14;;;;;;;8.43;6.15;;;13.20;99.90;;;;;;5000865;28;20046;-84
2022/09/11 06:11:39;;;;;;;6.32;5.82;;;13.30;99.90;;;;;;5002704;28;20042;-78
2022/09/11 06:14:05;;;;;;;6.68;6.07;;;13.30;99.90;;;;;;5008519;28;20042;-86
2022/09/11 06:16:31;;;;;;;7.45;6.50;;;13.40;99.90;;;;;;5005523;28;20101;-82
2022/09/11 06:18:57;;;;;;;9.30;7.55;;;13.60;99.90;;;;;;5005827;28;20042;-81
2022/09/11 06:21:26;;;;;;;10.68;8.55;;;13.70;99.90;;;;;;5002686;28;20501;-81
2022/09/11 06:23:52;;;;;;;16.35;8.07;;;13.60;99.90;;;;;;5007606;28;20133;-82
2022/09/11 06:26:20;;;;;;;10.63;8.38;;;13.80;99.90;;;;;;5003656;28;20405;-82
2022/09/11 06:28:47;;;;;;;10.18;9.15;;;14.00;99.90;;;;;;5004512;28;20072;-82
2022/09/11 06:31:15;;;;;;;11.68;9.68;;;14.10;99.90;;;;;;5008779;28;20397;-81
2022/09/11 06:33:41;;;;;;;12.13;10.57;;;14.10;99.90;;;;;;5008719;28;20081;-81
2022/09/11 06:36:11;;;;;;;11.57;10.38;;;14.00;99.90;;;;;;5007333;28;20514;-82
2022/09/11 06:38:37;;;;;;;11.73;10.55;;;14.20;99.90;;;;;;5009108;28;20038;-81
2022/09/11 06:41:05;;;;;;;14.25;12.85;;;14.40;99.90;;;;;;5004484;28;20052;-80
2022/09/11 06:43:31;;;;;;;14.20;10.43;;;14.40;99.90;;;;;;5007784;28;20056;-82
2022/09/11 06:46:04;;;;;;;14.38;11.05;;;14.40;99.90;;;;;;5006752;28;20409;-82
2022/09/11 06:48:30;;;;;;;12.05;10.85;;;14.70;99.90;;;;;;5005647;28;20416;-82
2022/09/11 06:50:56;;;;;;;14.95;11.02;;;14.60;99.90;;;;;;5006038;28;20038;-82
2022/09/11 06:53:22;;;;;;;14.50;11.35;;;14.60;99.90;;;;;;5007114;28;20051;-82
2022/09/11 06:55:48;;;;;;;11.40;10.30;;;14.70;99.90;;;;;;5004652;28;20104;-84
2022/09/11 06:58:14;;;;;;;15.00;13.18;;;14.80;99.90;;;;;;5005500;28;20540;-82
2022/09/11 07:00:40;;;;;;;12.45;11.20;;;15.00;99.90;;;;;;5006713;28;20085;-76
2022/09/11 07:03:06;;;;;;;11.23;10.13;;;15.30;99.90;;;;;;4990712;28;20073;-84
2022/09/11 07:05:32;;;;;;;14.02;11.82;;;15.30;99.90;;;;;;5006673;28;20492;-84
2022/09/11 07:07:58;;;;;;;14.38;12.68;;;15.70;99.90;;;;;;5007697;28;20048;-84
2022/09/11 07:10:24;;;;;;;11.52;10.32;;;15.70;99.90;;;;;;5006581;28;20048;-84
2022/09/11 07:12:53;;;;;;;13.30;11.95;;;15.60;99.90;;;;;;5006812;28;20124;-84
2022/09/11 07:15:19;;;;;;;13.82;11.38;;;15.80;99.90;;;;;;5007587;28;20078;-84
2022/09/11 07:17:45;;;;;;;15.57;11.73;;;15.90;99.90;;;;;;5003670;28;20477;-84
2022/09/11 07:20:10;;;;;;;14.77;12.30;;;16.00;99.90;;;;;;5004083;28;20046;-85
2022/09/11 07:22:36;;;;;;;13.30;12.00;;;16.00;99.90;;;;;;5007255;28;20042;-83
2022/09/11 07:25:02;;;;;;;12.20;11.00;;;16.20;99.90;;;;;;5023387;28;20049;-86
2022/09/11 07:27:30;;;;;;;13.30;11.98;;;16.30;99.90;;;;;;5007372;28;20045;-82
2022/09/11 07:29:56;;;;;;;13.68;11.05;;;16.60;99.90;;;;;;5007257;28;20042;-83
2022/09/11 07:32:21;;;;;;;11.27;10.25;;;16.90;99.90;;;;;;5005670;28;20052;-83
2022/09/11 07:34:48;;;;;;;12.25;10.98;;;16.60;99.90;;;;;;5006723;28;20120;-85
2022/09/11 07:37:14;;;;;;;15.55;10.27;;;17.10;99.90;;;;;;5004332;28;20054;-84
2022/09/11 07:39:40;;;;;;;13.20;10.32;;;17.10;99.90;;;;;;4991093;28;20042;-83
2022/09/11 07:42:06;;;;;;;14.23;11.50;;;17.00;99.90;;;;;;5006492;28;20041;-83
2022/09/11 07:44:33;;;;;;;14.27;10.63;;;17.30;99.90;;;;;;5008506;28;20034;-83
2022/09/11 07:46:59;;;;;;;8.93;7.88;;;17.20;99.90;;;;;;5007645;28;20049;-84
2022/09/11 07:49:26;;;;;;;11.48;8.52;;;17.30;99.90;;;;;;5001721;28;20049;-86
2022/09/11 07:51:55;;;;;;;10.93;8.68;;;17.30;99.90;;;;;;5005421;28;20042;-84
2022/09/11 07:54:21;;;;;;;12.23;9.90;;;17.70;99.90;;;;;;5007760;28;20038;-85
2022/09/11 07:56:47;;;;;;;9.75;8.57;;;17.80;99.90;;;;;;5008660;28;20148;-84
2022/09/11 07:59:13;;;;;;;8.00;7.20;;;17.80;99.90;;;;;;5014653;28;20045;-84
2022/09/11 08:01:39;;;;;;;10.35;5.55;;;17.90;99.90;;;;;;5020025;28;20097;-83
2022/09/11 08:04:07;;;;;;;6.55;5.95;;;17.70;99.90;;;;;;5008706;28;20060;-85
2022/09/11 08:06:34;;;;;;;7.28;5.25;;;18.00;99.90;;;;;;5007109;28;20485;-85
2022/09/11 08:09:06;;;;;;;8.88;6.22;;;17.90;99.90;;;;;;5005021;28;20046;-86
2022/09/11 08:11:40;;;;;;;8.68;5.95;;;18.00;99.90;;;;;;5008039;28;20088;-83
2022/09/11 08:14:06;;;;;;;39.08;7.85;;;18.20;99.90;;;;;;5005585;28;20050;-84
2022/09/11 08:16:36;;;;;;;5.95;4.95;;;18.30;99.90;;;;;;5000015;28;20054;-82
2022/09/11 08:19:04;;;;;;;6.13;5.50;;;18.20;99.90;;;;;;5000242;28;20140;-82
2022/09/11 08:21:31;;;;;;;7.30;5.32;;;18.30;99.90;;;;;;5003707;28;20057;-85
2022/09/11 08:23:57;;;;;;;6.00;5.00;;;18.50;99.90;;;;;;5005160;28;20057;-82
2022/09/11 08:26:27;;;;;;;8.75;3.88;;;18.70;99.90;;;;;;5004581;28;20125;-83
2022/09/11 08:28:55;;;;;;;24.17;5.47;;;18.60;99.90;;;;;;4989206;28;20038;-82
2022/09/11 08:31:25;;;;;;;8.30;3.90;;;18.60;99.90;;;;;;5007659;28;20046;-82
2022/09/11 08:33:50;;;;;;;5.65;4.10;;;18.90;99.90;;;;;;5004475;28;20049;-81
2022/09/11 08:36:17;;;;;;;5.35;3.72;;;18.90;99.90;;;;;;5004353;28;20041;-83
2022/09/11 08:38:43;;;;;;;4.60;3.17;;;18.90;99.90;;;;;;5007316;28;20512;-83
2022/09/11 08:41:33;;;;;;;6.75;3.88;;;18.80;99.90;;;;;;5006665;28;20037;-83
2022/09/11 08:44:08;;;;;;;5.97;4.30;;;18.60;99.90;;;;;;5006804;28;20472;-82
2022/09/11 08:46:37;;;;;;;5.40;3.10;;;18.80;99.90;;;;;;5006846;28;20050;-85
2022/09/11 08:49:21;;;;;;;5.60;3.45;;;18.70;99.90;;;;;;5002831;28;20046;-87
2022/09/11 08:51:48;;;;;;;4.97;3.78;;;18.60;99.90;;;;;;5003660;28;20068;-86
2022/09/11 08:54:36;;;;;;;4.55;4.05;;;18.70;99.90;;;;;;5006089;28;20057;-85
2022/09/11 08:57:37;;;;;;;5.20;4.18;;;19.00;99.90;;;;;;5007459;28;20084;-83
2022/09/11 09:00:18;;;;;;;11.23;4.22;;;19.30;99.90;;;;;;5006193;28;20050;-84
2022/09/11 09:02:49;;;;;;;6.03;3.67;;;19.30;99.90;;;;;;4999442;28;20042;-82
2022/09/11 09:05:33;;;;;;;4.97;3.35;;;19.80;99.90;;;;;;5017568;28;20041;-83
2022/09/11 09:08:38;;;;;;;5.60;3.95;;;19.80;99.90;;;;;;4999481;28;20046;-83
2022/09/11 09:11:31;;;;;;;5.97;3.38;;;19.40;99.90;;;;;;5001020;28;20137;-84
2022/09/11 09:14:04;;;;;;;5.63;3.00;;;19.00;99.90;;;;;;5002725;28;20049;-82
2022/09/11 09:16:53;;;;;;;5.43;3.00;;;18.80;99.90;;;;;;5008468;28;20053;-83
2022/09/11 09:19:27;;;;;;;5.20;3.03;;;18.70;99.90;;;;;;5007682;28;20428;-83
2022/09/11 09:22:30;;;;;;;6.00;3.28;;;18.70;99.90;;;;;;5008968;28;20124;-84
2022/09/11 09:25:02;;;;;;;5.00;4.22;;;18.60;99.90;;;;;;5007124;28;20105;-82
2022/09/11 09:27:34;;;;;;;3.75;3.10;;;18.50;99.90;;;;;;5008132;28;20075;-85
2022/09/11 09:30:05;;;;;;;7.10;3.83;;;18.60;99.90;;;;;;5011144;28;20097;-85
2022/09/11 09:32:38;;;;;;;7.72;4.93;;;18.50;99.90;;;;;;5017529;28;20042;-84
2022/09/11 09:35:15;;;;;;;5.47;4.60;;;18.50;99.90;;;;;;5012609;28;20413;-84
2022/09/11 09:37:41;;;;;;;6.90;2.95;;;18.80;99.90;;;;;;5012472;28;20069;-85
2022/09/11 09:40:09;;;;;;;6.53;3.30;;;19.10;99.90;;;;;;5012031;28;20030;-85
2022/09/11 09:42:40;;;;;;;5.22;3.38;;;19.30;99.90;;;;;;5008552;28;20104;-84
2022/09/11 09:45:34;;;;;;;8.85;4.10;;;19.60;99.90;;;;;;5009395;28;20401;-85
2022/09/11 09:48:00;;;;;;;6.32;3.40;;;19.80;99.90;;;;;;5010215;28;21635;-81
2022/09/11 09:50:34;;;;;;;8.95;5.22;;;19.90;99.90;;;;;;5010373;28;20099;-85
2022/09/11 09:53:12;;;;;;;9.95;4.90;;;20.00;99.90;;;;;;5012407;28;20046;-86
2022/09/11 09:55:39;;;;;;;5.15;3.50;;;19.90;99.90;;;;;;5011174;28;20169;-85
2022/09/11 09:58:06;;;;;;;5.07;3.47;;;20.00;99.90;;;;;;5011187;28;20050;-84
2022/09/11 10:00:36;;;;;;;7.00;2.88;;;20.10;99.90;;;;;;5011111;28;20033;-80
2022/09/11 10:03:17;;;;;;;3.72;2.80;;;20.20;99.90;;;;;;5005956;28;20049;-83
2022/09/11 10:05:43;;;;;;;10.80;3.15;;;20.30;99.90;;;;;;5006925;28;20038;-81
2022/09/11 10:08:25;;;;;;;2.53;2.03;;;20.20;99.90;;;;;;5021746;28;20049;-83
2022/09/11 10:10:59;;;;;;;5.18;2.10;;;19.90;99.90;;;;;;5011015;28;20050;-83
2022/09/11 10:13:50;;;;;;;4.50;1.38;;;19.70;99.90;;;;;;5010706;28;20121;-82
2022/09/11 10:16:22;;;;;;;7.10;1.98;;;19.50;99.90;;;;;;5009485;28;20189;-83
2022/09/11 10:18:48;;;;;;;4.97;1.98;;;19.50;99.90;;;;;;5008520;28;20049;-83
2022/09/11 10:21:21;;;;;;;3.13;1.38;;;19.30;99.90;;;;;;5007455;28;20073;-82
2022/09/11 10:24:02;;;;;;;2.13;1.33;;;19.30;99.90;;;;;;5008887;28;20092;-83
2022/09/11 10:26:46;;;;;;;6.13;1.70;;;19.30;99.90;;;;;;5010261;28;20396;-83
2022/09/11 10:29:23;;;;;;;4.97;2.17;;;19.50;99.90;;;;;;5002853;28;20046;-81
2022/09/11 10:32:01;;;;;;;4.75;1.77;;;19.70;99.90;;;;;;5008455;28;20049;-79
2022/09/11 10:34:35;;;;;;;2.78;1.90;;;19.80;99.90;;;;;;5005659;28;20060;-76
2022/09/11 10:37:01;;;;;;;3.72;2.03;;;19.90;99.90;;;;;;5012514;28;20138;-78
2022/09/11 10:39:34;;;;;;;5.07;2.67;;;19.80;99.90;;;;;;5010233;28;20050;-80
2022/09/11 10:42:10;;;;;;;4.30;1.92;;;20.00;99.90;;;;;;5010478;28;20622;-79
2022/09/11 10:44:40;;;;;;;5.47;3.15;;;20.40;99.90;;;;;;5013744;28;20037;-77
2022/09/11 10:47:21;;;;;;;3.13;2.03;;;20.60;99.90;;;;;;5013343;28;20078;-79
2022/09/11 10:49:47;;;;;;;2.88;1.80;;;21.10;99.90;;;;;;5002601;28;20092;-80
2022/09/11 10:52:12;;;;;;;2.78;1.48;;;21.20;99.90;;;;;;5010755;28;20081;-79
2022/09/11 10:54:54;;;;;;;3.50;1.98;;;21.30;99.90;;;;;;5007790;28;20089;-78
2022/09/11 10:57:43;;;;;;;1.52;1.17;;;21.50;99.90;;;;;;4994093;28;20069;-80
2022/09/11 11:00:26;;;;;;;3.85;1.30;;;21.50;99.90;;;;;;5013401;28;20465;-77
2022/09/11 11:03:04;;;;;;;4.57;1.00;;;21.50;99.90;;;;;;5010612;28;20041;-79
2022/09/11 11:05:43;;;;;;;1.20;1.02;;;21.60;99.90;;;;;;5006733;28;20638;-78
2022/09/11 11:08:24;;;;;;;2.57;1.60;;;21.50;99.90;;;;;;5009945;28;20118;-78
2022/09/11 11:11:13;;;;;;;4.10;1.27;;;21.30;99.90;;;;;;5010897;28;20046;-79
2022/09/11 11:14:00;;;;;;;3.20;0.80;;;21.30;99.90;;;;;;5008982;28;20061;-79
2022/09/11 11:16:53;;;;;;;4.45;1.20;;;21.50;99.90;;;;;;5023720;28;20061;-81
2022/09/11 11:19:22;;;;;;;3.08;1.13;;;21.80;99.90;;;;;;4991228;28;20042;-79
2022/09/11 11:22:00;;;;;;;2.15;1.20;;;21.90;99.90;;;;;;5007502;28;20425;-79
2022/09/11 11:24:58;;;;;;;3.25;1.00;;;21.80;99.90;;;;;;5008230;28;20046;-77
2022/09/11 11:27:43;;;;;;;3.55;1.80;;;21.90;99.90;;;;;;4996484;28;20132;-80
2022/09/11 11:30:18;;;;;;;1.92;0.95;;;21.80;99.90;;;;;;5004110;28;20038;-79
2022/09/11 11:33:05;;;;;;;4.35;1.58;;;21.80;99.90;;;;;;5004566;28;20397;-78
2022/09/11 11:35:44;;;;;;;2.20;1.10;;;22.00;99.90;;;;;;5004257;28;20146;-78
2022/09/11 11:38:45;;;;;;;2.58;1.10;;;22.00;99.90;;;;;;5007305;28;20100;-79
2022/09/11 11:41:13;;;;;;;4.78;1.65;;;21.90;99.90;;;;;;4984224;28;20046;-80
2022/09/11 11:43:42;;;;;;;2.80;1.58;;;21.50;99.90;;;;;;5007545;28;20045;-79
2022/09/11 11:46:17;;;;;;;5.05;1.83;;;21.60;99.90;;;;;;4990337;28;20052;-79
2022/09/11 11:48:57;;;;;;;1.58;1.13;;;21.10;99.90;;;;;;5004617;28;20050;-78
2022/09/11 11:51:38;;;;;;;3.38;1.65;;;21.00;99.90;;;;;;5006715;28;20037;-77
2022/09/11 11:54:19;;;;;;;3.95;2.38;;;21.00;99.90;;;;;;5002450;28;20100;-80
2022/09/11 11:56:55;;;;;;;5.75;1.27;;;21.20;99.90;;;;;;5006923;28;20057;-79
2022/09/11 11:59:49;;;;;;;2.85;1.70;;;21.30;99.90;;;;;;5006095;28;20058;-79
2022/09/11 12:02:23;;;;;;;4.53;1.50;;;21.30;99.90;;;;;;5004013;28;20100;-79
2022/09/11 12:05:01;;;;;;;4.85;1.83;;;21.10;99.90;;;;;;4992140;28;20104;-78
2022/09/11 12:07:33;;;;;;;1.63;1.00;;;21.10;99.90;;;;;;4996756;28;20042;-78
2022/09/11 12:10:01;;;;;;;4.03;1.33;;;21.00;99.90;;;;;;5000486;28;20053;-76
2022/09/11 12:12:32;;;;;;;2.75;1.33;;;20.90;99.90;;;;;;4996947;28;20038;-78
2022/09/11 12:15:07;;;;;;;2.15;1.23;;;20.90;99.90;;;;;;5000274;28;20092;-76
2022/09/11 12:17:35;;;;;;;3.70;1.23;;;20.80;99.90;;;;;;4987575;28;20042;-77
2022/09/11 12:20:10;;;;;;;5.43;2.22;;;20.70;99.90;;;;;;5003875;28;20148;-76
2022/09/11 12:22:47;;;;;;;2.97;1.17;;;20.80;99.90;;;;;;4988010;28;20057;-76
2022/09/11 12:25:21;;;;;;;1.80;1.08;;;21.20;99.90;;;;;;4992652;28;20405;-77
2022/09/11 12:27:54;;;;;;;2.78;1.17;;;21.60;99.90;;;;;;5002699;28;20049;-76
2022/09/11 12:30:23;;;;;;;3.03;1.10;;;21.80;99.90;;;;;;5002516;28;20045;-78
2022/09/11 12:32:51;;;;;;;2.88;1.17;;;21.80;99.90;;;;;;4992107;28;20049;-76
2022/09/11 12:35:44;;;;;;;5.35;1.55;;;21.40;99.90;;;;;;4997347;28;20062;-76
2022/09/11 12:38:34;;;;;;;4.28;2.03;;;21.50;99.90;;;;;;4990759;28;20098;-76
2022/09/11 12:41:06;;;;;;;1.95;1.33;;;21.70;99.90;;;;;;5002686;28;20077;-76
2022/09/11 12:43:34;;;;;;;5.43;1.10;;;22.00;99.90;;;;;;5001673;28;20046;-76
2022/09/11 12:46:02;;;;;;;2.63;1.50;;;22.10;99.90;;;;;;5005290;28;20053;-76
2022/09/11 12:49:02;;;;;;;3.22;1.38;;;22.10;99.90;;;;;;4994227;28;20042;-77
2022/09/11 12:51:38;;;;;;;1.80;1.33;;;22.50;99.90;;;;;;4996156;28;20524;-76
2022/09/11 12:54:12;;;;;;;4.15;1.55;;;22.50;99.90;;;;;;5005634;28;20034;-77
2022/09/11 12:56:50;;;;;;;3.75;1.23;;;22.40;99.90;;;;;;5005088;28;20058;-76
2022/09/11 12:59:28;;;;;;;3.50;0.95;;;22.00;99.90;;;;;;4997169;28;20050;-77
2022/09/11 13:01:55;;;;;;;1.58;0.93;;;21.80;99.90;;;;;;5004041;28;20049;-76
2022/09/11 13:04:24;;;;;;;3.83;0.70;;;21.90;99.90;;;;;;5002422;28;20042;-76